createdAt,value
2018-09-23T00:00:14.479Z,10.70
2018-09-23T00:02:43.083Z,10.70
2018-09-23T00:05:11.681Z,10.80
2018-09-23T00:07:41.026Z,10.70
2018-09-23T00:10:09.631Z,10.70
2018-09-23T00:12:38.249Z,10.70
2018-09-23T00:15:07.019Z,10.70
2018-09-23T00:17:35.682Z,10.70
2018-09-23T00:20:04.298Z,10.60
2018-09-23T00:22:33.028Z,10.60
2018-09-23T00:25:01.598Z,10.60
2018-09-23T00:27:30.646Z,10.60
2018-09-23T00:29:59.230Z,10.60
2018-09-23T00:32:27.810Z,10.60
2018-09-23T00:34:56.401Z,10.60
2018-09-23T00:37:25.654Z,10.60
2018-09-23T00:39:54.249Z,10.60
2018-09-23T00:42:22.859Z,10.70
2018-09-23T00:44:51.477Z,10.60
2018-09-23T00:47:20.046Z,10.60
2018-09-23T00:49:48.646Z,10.60
2018-09-23T00:52:17.212Z,10.60
2018-09-23T00:54:45.866Z,10.60
2018-09-23T00:57:14.510Z,10.60
2018-09-23T00:59:43.120Z,10.60
2018-09-23T01:02:11.765Z,10.60
2018-09-23T01:04:40.361Z,10.60
2018-09-23T01:07:09.206Z,10.60
2018-09-23T01:09:37.818Z,10.70
2018-09-23T01:12:06.481Z,10.70
2018-09-23T01:14:35.117Z,10.70
2018-09-23T01:17:03.752Z,10.70
2018-09-23T01:19:32.347Z,10.70
2018-09-23T01:22:00.980Z,10.70
2018-09-23T01:24:29.678Z,10.80
2018-09-23T01:26:58.266Z,10.80
2018-09-23T01:29:26.854Z,10.80
2018-09-23T01:31:55.465Z,10.80
2018-09-23T01:34:24.169Z,10.80
2018-09-23T01:36:52.877Z,10.80
2018-09-23T01:39:21.561Z,10.80
2018-09-23T01:41:50.162Z,10.80
2018-09-23T01:44:18.741Z,10.90
2018-09-23T01:46:47.330Z,10.80
2018-09-23T01:49:15.898Z,10.80
2018-09-23T01:51:44.546Z,10.80
2018-09-23T01:54:13.117Z,10.80
2018-09-23T01:56:41.695Z,10.90
2018-09-23T01:59:10.295Z,10.90
2018-09-23T02:01:38.918Z,10.90
2018-09-23T02:04:07.628Z,10.90
2018-09-23T02:06:36.186Z,10.90
2018-09-23T02:09:06.054Z,10.80
2018-09-23T02:11:34.634Z,10.90
2018-09-23T02:14:03.253Z,10.80
2018-09-23T02:16:31.962Z,10.90
2018-09-23T02:19:00.742Z,10.90
2018-09-23T02:21:29.325Z,10.90
2018-09-23T02:23:58.046Z,10.90
2018-09-23T02:26:26.710Z,10.90
2018-09-23T02:28:55.342Z,10.90
2018-09-23T02:31:23.934Z,10.90
2018-09-23T02:33:52.625Z,10.90
2018-09-23T02:36:21.243Z,11.00
2018-09-23T02:38:49.817Z,10.90
2018-09-23T02:41:18.422Z,10.90
2018-09-23T02:43:47.115Z,10.90
2018-09-23T02:46:15.729Z,10.90
2018-09-23T02:48:44.333Z,11.00
2018-09-23T02:51:12.918Z,11.00
2018-09-23T02:53:41.529Z,10.90
2018-09-23T02:56:10.159Z,10.90
2018-09-23T02:58:38.782Z,10.90
2018-09-23T03:01:07.613Z,10.90
2018-09-23T03:03:36.217Z,11.00
2018-09-23T03:06:04.924Z,11.00
2018-09-23T03:08:33.483Z,11.00
2018-09-23T03:11:02.188Z,11.00
2018-09-23T03:13:30.770Z,11.00
2018-09-23T03:15:59.384Z,11.00
2018-09-23T03:18:27.943Z,11.00
2018-09-23T03:20:56.518Z,11.00
2018-09-23T03:23:25.231Z,11.00
2018-09-23T03:25:53.806Z,11.00
2018-09-23T03:28:22.583Z,11.00
2018-09-23T03:30:51.478Z,11.00
2018-09-23T03:33:20.169Z,11.00
2018-09-23T03:35:48.858Z,11.00
2018-09-23T03:38:17.719Z,11.00
2018-09-23T03:40:46.373Z,11.00
2018-09-23T03:43:15.001Z,11.00
2018-09-23T03:45:43.668Z,11.00
2018-09-23T03:48:12.255Z,11.00
2018-09-23T03:50:40.917Z,11.00
2018-09-23T03:53:09.486Z,11.00
2018-09-23T03:55:38.080Z,11.00
2018-09-23T03:58:06.792Z,11.00
2018-09-23T04:00:35.414Z,11.00
2018-09-23T04:03:03.995Z,11.00
2018-09-23T04:05:32.591Z,11.00
2018-09-23T04:08:01.206Z,11.00
2018-09-23T04:10:29.784Z,11.00
2018-09-23T04:12:58.415Z,11.00
2018-09-23T04:15:27.180Z,11.10
2018-09-23T04:17:55.853Z,11.10
2018-09-23T04:20:24.419Z,11.10
2018-09-23T04:22:53.040Z,11.10
2018-09-23T04:25:22.641Z,11.10
2018-09-23T04:27:51.647Z,11.10
2018-09-23T04:30:21.417Z,11.10
2018-09-23T04:32:50.682Z,11.10
2018-09-23T04:35:19.538Z,11.10
2018-09-23T04:37:48.691Z,11.10
2018-09-23T04:40:17.330Z,11.10
2018-09-23T04:42:45.970Z,11.10
2018-09-23T04:45:14.626Z,11.10
2018-09-23T04:47:43.285Z,11.00
2018-09-23T04:50:11.970Z,11.10
2018-09-23T04:52:40.604Z,11.10
2018-09-23T04:55:09.202Z,11.10
2018-09-23T04:57:37.887Z,11.00
2018-09-23T05:00:06.578Z,11.10
2018-09-23T05:02:35.285Z,11.10
2018-09-23T05:05:03.953Z,11.10
2018-09-23T05:07:32.625Z,11.10
2018-09-23T05:10:01.374Z,11.10
2018-09-23T05:12:30.050Z,11.10
2018-09-23T05:14:59.498Z,11.10
2018-09-23T05:17:28.529Z,11.10
2018-09-23T05:19:57.117Z,11.10
2018-09-23T05:22:25.765Z,11.10
2018-09-23T05:24:54.358Z,11.20
2018-09-23T05:27:22.936Z,11.20
2018-09-23T05:29:51.522Z,11.20
2018-09-23T05:32:20.130Z,11.20
2018-09-23T05:34:48.750Z,11.20
2018-09-23T05:37:17.350Z,11.20
2018-09-23T05:39:45.944Z,11.20
2018-09-23T05:42:14.684Z,11.20
2018-09-23T05:44:43.378Z,11.20
2018-09-23T05:47:12.144Z,11.20
2018-09-23T05:49:40.842Z,11.20
2018-09-23T05:52:09.430Z,11.20
2018-09-23T05:54:38.148Z,11.20
2018-09-23T05:57:06.735Z,11.30
2018-09-23T05:59:35.362Z,11.30
2018-09-23T06:02:03.997Z,11.20
2018-09-23T06:04:32.730Z,11.30
2018-09-23T06:07:01.319Z,11.30
2018-09-23T06:09:29.906Z,11.30
2018-09-23T06:11:58.562Z,11.30
2018-09-23T06:14:27.320Z,11.30
2018-09-23T06:16:56.018Z,11.40
2018-09-23T06:19:24.592Z,11.30
2018-09-23T06:21:53.257Z,11.40
2018-09-23T06:24:21.893Z,11.40
2018-09-23T06:26:50.518Z,11.40
2018-09-23T06:29:19.150Z,11.40
2018-09-23T06:31:47.799Z,11.50
2018-09-23T06:34:16.505Z,11.50
2018-09-23T06:36:45.284Z,11.50
2018-09-23T06:39:14.053Z,11.50
2018-09-23T06:41:42.673Z,11.50
2018-09-23T06:44:11.737Z,11.60
2018-09-23T06:46:40.409Z,11.60
2018-09-23T06:49:09.014Z,11.60
2018-09-23T06:51:42.027Z,11.60
2018-09-23T06:54:10.786Z,11.60
2018-09-23T06:56:39.891Z,11.60
2018-09-23T06:59:08.557Z,11.60
2018-09-23T07:01:37.291Z,11.60
2018-09-23T07:04:06.094Z,11.70
2018-09-23T07:06:34.686Z,11.70
2018-09-23T07:09:03.864Z,11.70
2018-09-23T07:11:32.455Z,11.70
2018-09-23T07:14:01.024Z,11.70
2018-09-23T07:16:30.303Z,11.80
2018-09-23T07:18:59.001Z,11.80
2018-09-23T07:21:27.588Z,11.80
2018-09-23T07:23:56.589Z,11.80
2018-09-23T07:26:25.426Z,11.90
2018-09-23T07:28:54.036Z,11.90
2018-09-23T07:31:22.654Z,11.90
2018-09-23T07:33:51.277Z,11.90
2018-09-23T07:36:19.973Z,11.80
2018-09-23T07:38:48.708Z,11.90
2018-09-23T07:41:17.362Z,11.90
2018-09-23T07:43:45.957Z,11.90
2018-09-23T07:46:14.558Z,12.00
2018-09-23T07:48:43.146Z,12.10
2018-09-23T07:51:11.773Z,12.00
2018-09-23T07:53:40.581Z,12.10
2018-09-23T07:56:09.235Z,12.10
2018-09-23T07:58:37.932Z,12.10
2018-09-23T08:01:06.647Z,12.10
2018-09-23T08:03:35.442Z,12.20
2018-09-23T08:06:04.011Z,12.20
2018-09-23T08:08:32.583Z,12.20
2018-09-23T08:11:01.170Z,12.30
2018-09-23T08:13:30.101Z,12.40
2018-09-23T08:15:58.757Z,12.40
2018-09-23T08:18:27.327Z,12.40
2018-09-23T08:20:56.090Z,12.40
2018-09-23T08:23:24.534Z,12.50
2018-09-23T08:25:53.158Z,12.40
2018-09-23T08:28:21.729Z,12.50
2018-09-23T08:30:51.378Z,12.60
2018-09-23T08:33:20.110Z,12.50
2018-09-23T08:35:48.741Z,12.60
2018-09-23T08:38:17.362Z,12.70
2018-09-23T08:40:45.985Z,12.70
2018-09-23T08:43:14.712Z,12.70
2018-09-23T08:45:43.266Z,12.70
2018-09-23T08:48:11.993Z,12.80
2018-09-23T08:50:40.654Z,12.80
2018-09-23T08:53:09.346Z,12.90
2018-09-23T08:55:37.969Z,12.90
2018-09-23T08:58:07.089Z,12.90
2018-09-23T09:00:35.678Z,12.90
2018-09-23T09:03:04.454Z,13.00
2018-09-23T09:05:33.119Z,12.90
2018-09-23T09:08:01.733Z,12.90
2018-09-23T09:10:30.459Z,13.00
2018-09-23T09:12:59.215Z,13.00
2018-09-23T09:15:27.957Z,13.00
2018-09-23T09:17:56.666Z,13.00
2018-09-23T09:20:25.457Z,13.10
2018-09-23T09:22:54.301Z,13.10
2018-09-23T09:25:22.977Z,13.20
2018-09-23T09:27:51.718Z,13.10
2018-09-23T09:30:20.306Z,13.20
2018-09-23T09:32:49.054Z,13.20
2018-09-23T09:35:17.685Z,13.20
2018-09-23T09:37:46.270Z,13.30
2018-09-23T09:40:14.947Z,13.40
2018-09-23T09:42:43.602Z,13.30
2018-09-23T09:45:12.185Z,13.30
2018-09-23T09:47:41.453Z,13.30
2018-09-23T09:50:10.202Z,13.30
2018-09-23T09:52:38.842Z,13.30
2018-09-23T09:55:07.544Z,13.30
2018-09-23T09:57:36.178Z,13.30
2018-09-23T10:00:05.605Z,13.20
2018-09-23T10:02:34.247Z,13.30
2018-09-23T10:05:03.337Z,13.30
2018-09-23T10:07:31.925Z,13.30
2018-09-23T10:10:00.518Z,13.40
2018-09-23T10:12:29.129Z,13.40
2018-09-23T10:14:57.759Z,13.50
2018-09-23T10:17:26.329Z,13.60
2018-09-23T10:19:54.936Z,13.60
2018-09-23T10:22:23.614Z,13.60
2018-09-23T10:24:55.957Z,13.60
2018-09-23T10:27:25.131Z,13.50
2018-09-23T10:29:55.329Z,13.50
2018-09-23T10:32:23.917Z,13.40
2018-09-23T10:34:52.973Z,13.40
2018-09-23T10:37:21.815Z,13.30
2018-09-23T10:39:50.398Z,13.40
2018-09-23T10:42:19.082Z,13.30
2018-09-23T10:44:47.879Z,13.30
2018-09-23T10:47:16.761Z,13.30
2018-09-23T10:49:45.408Z,13.30
2018-09-23T10:52:14.078Z,13.30
2018-09-23T10:54:42.696Z,13.30
2018-09-23T10:57:11.306Z,13.30
2018-09-23T10:59:40.204Z,13.20
2018-09-23T11:02:08.758Z,13.20
2018-09-23T11:04:37.420Z,13.10
2018-09-23T11:07:06.168Z,13.10
2018-09-23T11:09:34.859Z,13.10
2018-09-23T11:12:03.450Z,13.10
2018-09-23T11:14:32.082Z,13.10
2018-09-23T11:17:03.002Z,13.00
2018-09-23T11:19:31.654Z,13.00
2018-09-23T11:22:00.366Z,13.00
2018-09-23T11:24:28.990Z,13.00
2018-09-23T11:26:57.754Z,13.10
2018-09-23T11:29:26.436Z,13.00
2018-09-23T11:31:55.198Z,13.10
2018-09-23T11:34:23.838Z,13.00
2018-09-23T11:36:52.603Z,13.00
2018-09-23T11:39:21.287Z,13.00
2018-09-23T11:41:50.123Z,13.00
2018-09-23T11:44:18.807Z,13.00
2018-09-23T11:46:47.418Z,13.10
2018-09-23T11:49:16.100Z,13.10
2018-09-23T11:51:44.789Z,13.00
2018-09-23T11:54:13.426Z,13.10
2018-09-23T11:56:42.021Z,13.10
2018-09-23T11:59:11.486Z,13.00
2018-09-23T12:01:40.595Z,12.90
2018-09-23T12:04:09.206Z,12.80
2018-09-23T12:06:40.373Z,12.70
2018-09-23T12:09:12.656Z,12.70
2018-09-23T12:11:48.900Z,12.60
2018-09-23T12:14:17.637Z,12.60
2018-09-23T12:16:46.306Z,12.50
2018-09-23T12:19:14.907Z,12.50
2018-09-23T12:21:43.589Z,12.40
2018-09-23T12:24:12.165Z,12.30
2018-09-23T12:26:40.799Z,12.40
2018-09-23T12:29:09.486Z,12.30
2018-09-23T12:31:38.320Z,12.30
2018-09-23T12:34:08.602Z,12.30
2018-09-23T12:36:37.326Z,12.30
2018-09-23T12:39:09.937Z,12.20
2018-09-23T12:41:38.773Z,12.30
2018-09-23T12:44:07.574Z,12.20
2018-09-23T12:46:36.274Z,12.10
2018-09-23T12:49:04.906Z,12.10
2018-09-23T12:51:33.477Z,12.10
2018-09-23T12:54:02.432Z,12.00
2018-09-23T12:56:31.812Z,12.00
2018-09-23T12:59:00.422Z,12.00
2018-09-23T13:01:29.107Z,12.00
2018-09-23T13:03:57.801Z,12.00
2018-09-23T13:06:26.553Z,11.90
2018-09-23T13:08:55.354Z,11.80
2018-09-23T13:11:23.939Z,11.80
2018-09-23T13:13:52.657Z,11.70
2018-09-23T13:16:21.271Z,11.70
2018-09-23T13:18:49.991Z,11.70
2018-09-23T13:21:18.656Z,11.70
2018-09-23T13:23:47.299Z,11.70
2018-09-23T13:26:15.975Z,11.70
2018-09-23T13:28:44.576Z,11.80
2018-09-23T13:31:13.235Z,11.80
2018-09-23T13:33:41.937Z,11.70
2018-09-23T13:36:10.567Z,11.70
2018-09-23T13:38:39.383Z,11.70
2018-09-23T13:41:08.095Z,11.80
2018-09-23T13:43:36.714Z,11.80
2018-09-23T13:46:05.433Z,11.80
2018-09-23T13:48:34.441Z,11.80
2018-09-23T13:51:03.046Z,11.70
2018-09-23T13:53:31.730Z,11.80
2018-09-23T13:56:01.009Z,11.80
2018-09-23T13:58:29.695Z,11.80
2018-09-23T14:00:58.382Z,11.80
2018-09-23T14:03:27.142Z,11.80
2018-09-23T14:05:55.801Z,11.90
2018-09-23T14:08:24.485Z,11.90
2018-09-23T14:10:53.238Z,11.80
2018-09-23T14:13:21.840Z,11.80
2018-09-23T14:15:50.556Z,11.70
2018-09-23T14:18:19.283Z,11.70
2018-09-23T14:20:47.878Z,11.70
2018-09-23T14:23:16.542Z,11.60
2018-09-23T14:25:46.028Z,11.60
2018-09-23T14:28:14.745Z,11.50
2018-09-23T14:30:43.649Z,11.40
2018-09-23T14:33:12.390Z,11.30
2018-09-23T14:35:41.114Z,11.30
2018-09-23T14:38:13.810Z,11.30
2018-09-23T14:40:42.385Z,11.20
2018-09-23T14:43:11.057Z,11.20
2018-09-23T14:45:40.138Z,11.20
2018-09-23T14:48:09.293Z,11.10
2018-09-23T14:50:37.974Z,11.00
2018-09-23T14:53:06.665Z,11.00
2018-09-23T14:55:35.458Z,10.90
2018-09-23T14:58:04.073Z,10.90
2018-09-23T15:00:32.764Z,11.00
2018-09-23T15:03:01.448Z,10.90
2018-09-23T15:05:30.165Z,10.90
2018-09-23T15:07:58.930Z,10.90
2018-09-23T15:10:27.624Z,10.90
2018-09-23T15:12:56.347Z,10.90
2018-09-23T15:15:24.971Z,11.00
2018-09-23T15:17:54.058Z,11.00
2018-09-23T15:20:23.006Z,11.00
2018-09-23T15:22:51.912Z,11.00
2018-09-23T15:25:20.567Z,11.00
2018-09-23T15:27:49.215Z,10.90
2018-09-23T15:30:17.954Z,10.90
2018-09-23T15:32:46.865Z,10.90
2018-09-23T15:35:15.616Z,10.80
2018-09-23T15:37:44.256Z,10.70
2018-09-23T15:40:13.096Z,10.70
2018-09-23T15:42:41.670Z,10.70
2018-09-23T15:45:10.353Z,10.80
2018-09-23T15:47:38.998Z,10.70
2018-09-23T15:50:07.673Z,10.80
2018-09-23T15:52:36.454Z,10.80
2018-09-23T15:55:05.194Z,10.80
2018-09-23T15:57:33.907Z,10.70
2018-09-23T16:00:02.690Z,10.70
2018-09-23T16:02:31.351Z,10.70
2018-09-23T16:04:59.936Z,10.60
2018-09-23T16:07:28.682Z,10.60
2018-09-23T16:09:57.336Z,10.60
2018-09-23T16:12:26.002Z,10.60
2018-09-23T16:14:54.652Z,10.70
2018-09-23T16:17:23.383Z,10.60
2018-09-23T16:19:51.969Z,10.50
2018-09-23T16:22:20.588Z,10.50
2018-09-23T16:24:49.971Z,10.50
2018-09-23T16:27:18.539Z,10.40
2018-09-23T16:29:47.161Z,10.40
2018-09-23T16:32:15.814Z,10.30
2018-09-23T16:34:44.434Z,10.30
2018-09-23T16:37:13.024Z,10.30
2018-09-23T16:39:41.622Z,10.30
2018-09-23T16:42:10.203Z,10.30
2018-09-23T16:44:38.922Z,10.20
2018-09-23T16:47:07.531Z,10.10
2018-09-23T16:49:36.149Z,10.10
2018-09-23T16:52:04.786Z,10.00
2018-09-23T16:54:33.599Z,9.90
2018-09-23T16:57:02.161Z,9.90
2018-09-23T16:59:30.805Z,9.80
2018-09-23T17:01:59.422Z,9.80
2018-09-23T17:04:28.014Z,9.80
2018-09-23T17:06:57.013Z,9.70
2018-09-23T17:09:25.683Z,9.70
2018-09-23T17:11:54.266Z,9.70
2018-09-23T17:14:23.002Z,9.70
2018-09-23T17:16:51.757Z,9.70
2018-09-23T17:19:20.483Z,9.60
2018-09-23T17:21:49.166Z,9.50
2018-09-23T17:24:17.743Z,9.50
2018-09-23T17:26:46.392Z,9.50
2018-09-23T17:29:15.614Z,9.60
2018-09-23T17:31:44.303Z,9.60
2018-09-23T17:34:12.915Z,9.70
2018-09-23T17:36:41.578Z,9.60
2018-09-23T17:39:11.153Z,9.60
2018-09-23T17:41:40.432Z,9.50
2018-09-23T17:44:09.189Z,9.50
2018-09-23T17:46:37.933Z,9.50
2018-09-23T17:49:06.647Z,9.50
2018-09-23T17:51:35.304Z,9.40
2018-09-23T17:54:04.030Z,9.40
2018-09-23T17:56:32.709Z,9.40
2018-09-23T17:59:01.314Z,9.30
2018-09-23T18:01:30.021Z,9.40
2018-09-23T18:03:58.762Z,9.40
2018-09-23T18:06:27.419Z,9.40
2018-09-23T18:08:56.119Z,9.40
2018-09-23T18:11:24.706Z,9.30
2018-09-23T18:13:53.413Z,9.40
2018-09-23T18:16:22.026Z,9.30
2018-09-23T18:18:50.726Z,9.40
2018-09-23T18:21:19.406Z,9.30
2018-09-23T18:23:48.013Z,9.30
2018-09-23T18:26:17.853Z,9.30
2018-09-23T18:28:46.548Z,9.40
2018-09-23T18:31:15.491Z,9.30
2018-09-23T18:33:44.074Z,9.30
2018-09-23T18:36:18.277Z,9.30
2018-09-23T18:38:46.854Z,9.30
2018-09-23T18:41:15.447Z,9.30
2018-09-23T18:43:44.123Z,9.30
2018-09-23T18:46:12.750Z,9.30
2018-09-23T18:48:41.349Z,9.30
2018-09-23T18:51:09.918Z,9.30
2018-09-23T18:53:38.822Z,9.30
2018-09-23T18:56:07.592Z,9.30
2018-09-23T18:58:36.593Z,9.30
2018-09-23T19:01:05.819Z,9.30
2018-09-23T19:03:34.567Z,9.30
2018-09-23T19:06:03.161Z,9.40
2018-09-23T19:08:35.464Z,9.40
2018-09-23T19:11:05.150Z,9.40
2018-09-23T19:13:41.038Z,9.40
2018-09-23T19:16:14.942Z,9.50
2018-09-23T19:18:43.581Z,9.50
2018-09-23T19:21:12.158Z,9.40
2018-09-23T19:23:40.810Z,9.40
2018-09-23T19:26:09.412Z,9.40
2018-09-23T19:28:38.061Z,9.50
2018-09-23T19:31:06.764Z,9.50
2018-09-23T19:33:35.460Z,9.50
2018-09-23T19:36:04.098Z,9.50
2018-09-23T19:38:33.496Z,9.50
2018-09-23T19:41:02.126Z,9.50
2018-09-23T19:43:30.854Z,9.50
2018-09-23T19:45:59.442Z,9.40
2018-09-23T19:48:28.162Z,9.40
2018-09-23T19:50:56.829Z,9.40
2018-09-23T19:53:25.561Z,9.40
2018-09-23T19:55:54.666Z,9.40
2018-09-23T19:58:23.519Z,9.40
2018-09-23T20:00:52.331Z,9.40
2018-09-23T20:03:20.925Z,9.40
2018-09-23T20:05:49.778Z,9.30
2018-09-23T20:08:18.708Z,9.40
2018-09-23T20:10:47.315Z,9.40
2018-09-23T20:13:17.528Z,9.40
2018-09-23T20:15:46.419Z,9.40
2018-09-23T20:18:14.930Z,9.40
2018-09-23T20:20:43.879Z,9.50
2018-09-23T20:23:12.899Z,9.40
2018-09-23T20:25:41.613Z,9.30
2018-09-23T20:28:10.180Z,9.40
2018-09-23T20:30:38.838Z,9.40
2018-09-23T20:33:07.464Z,9.40
2018-09-23T20:35:36.105Z,9.30
2018-09-23T20:38:05.332Z,9.30
2018-09-23T20:40:34.265Z,9.40
2018-09-23T20:43:02.914Z,9.40
2018-09-23T20:45:31.483Z,9.40
2018-09-23T20:48:00.810Z,9.40
2018-09-23T20:50:29.367Z,9.40
2018-09-23T20:52:57.918Z,9.40
2018-09-23T20:55:26.612Z,9.40
2018-09-23T20:57:55.186Z,9.40
2018-09-23T21:00:23.773Z,9.50
2018-09-23T21:02:52.334Z,9.50
2018-09-23T21:05:20.957Z,9.50
2018-09-23T21:07:49.595Z,9.50
2018-09-23T21:10:18.311Z,9.40
2018-09-23T21:12:46.889Z,9.40
2018-09-23T21:15:15.514Z,9.50
2018-09-23T21:17:44.053Z,9.50
2018-09-23T21:20:12.631Z,9.50
2018-09-23T21:22:41.218Z,9.40
2018-09-23T21:25:09.781Z,9.40
2018-09-23T21:27:38.383Z,9.40
2018-09-23T21:30:06.982Z,9.40
2018-09-23T21:32:35.592Z,9.40
2018-09-23T21:35:04.205Z,9.40
2018-09-23T21:37:32.793Z,9.40
2018-09-23T21:40:01.423Z,9.40
2018-09-23T21:42:30.026Z,9.40
2018-09-23T21:44:58.643Z,9.50
2018-09-23T21:47:27.210Z,9.40
2018-09-23T21:49:55.790Z,9.40
2018-09-23T21:52:24.345Z,9.40
2018-09-23T21:54:53.233Z,9.40
2018-09-23T21:57:21.798Z,9.40
2018-09-23T21:59:50.356Z,9.40
2018-09-23T22:02:18.959Z,9.40
2018-09-23T22:04:47.517Z,9.40
2018-09-23T22:07:16.106Z,9.40
2018-09-23T22:09:44.709Z,9.40
2018-09-23T22:12:13.318Z,9.40
2018-09-23T22:14:41.903Z,9.40
2018-09-23T22:17:10.502Z,9.40
2018-09-23T22:19:39.198Z,9.40
2018-09-23T22:22:07.765Z,9.40
2018-09-23T22:24:36.484Z,9.40
2018-09-23T22:27:05.090Z,9.40
2018-09-23T22:29:33.840Z,9.40
2018-09-23T22:32:02.371Z,9.50
2018-09-23T22:34:30.951Z,9.50
2018-09-23T22:36:59.552Z,9.40
2018-09-23T22:39:28.166Z,9.50
2018-09-23T22:41:56.811Z,9.40
2018-09-23T22:44:25.341Z,9.40
2018-09-23T22:46:53.947Z,9.40
2018-09-23T22:49:22.515Z,9.40
2018-09-23T22:51:51.154Z,9.40
2018-09-23T22:54:19.749Z,9.50
2018-09-23T22:56:48.342Z,9.50
2018-09-23T22:59:16.926Z,9.50
2018-09-23T23:01:45.524Z,9.50
2018-09-23T23:04:14.083Z,9.50
2018-09-23T23:06:42.633Z,9.50
2018-09-23T23:09:11.225Z,9.50
2018-09-23T23:11:39.822Z,9.60
2018-09-23T23:14:08.543Z,9.60
2018-09-23T23:16:37.117Z,9.50
2018-09-23T23:19:05.780Z,9.50
2018-09-23T23:21:34.386Z,9.50
2018-09-23T23:24:02.993Z,9.50
2018-09-23T23:26:31.570Z,9.50
2018-09-23T23:29:00.142Z,9.50
2018-09-23T23:31:28.746Z,9.40
2018-09-23T23:33:57.405Z,9.40
2018-09-23T23:36:26.005Z,9.40
2018-09-23T23:38:54.688Z,9.30
2018-09-23T23:41:23.389Z,9.20
2018-09-23T23:43:51.937Z,9.20
2018-09-23T23:46:20.558Z,9.20
2018-09-23T23:48:49.177Z,9.30
2018-09-23T23:51:17.833Z,9.20
2018-09-23T23:53:46.443Z,9.20
2018-09-23T23:56:15.030Z,9.20
2018-09-23T23:58:43.667Z,9.20
